Tiempo atmosférico en la estación meteorológica de Agaete, Las Palmas (5 m.)



Fecha
DESCASC
Temp. máxima en grados centígrados (hora)
DESCASC
Temp. mínima en grados centígrados (hora)
DESCASC
Temp. media en grados centígrados
DESCASC
Racha de viento máxima en m/sg (hora)
DESCASC
Velocidad máxima media en intervalos de 10 minutos(hora)
DESCASC
Precipitaciones diarias en mm
DESCASC
Precipitaciones de 00:00 a 06:00 en mm
DESCASC
Precipitaciones de 06:00 a 12:00 en mm
DESCASC
Precipitaciones de 12:00 a 18:00 en mm
DESCASC
Precipitaciones de 18:00 a 24:00 en mm
DESCASC
07-01-2021 22.4 (17:40) 20.5 (00:00) 21.4 25.83 (11:40) 17.5 (11:30) 3 0.2 2.6 0 0.2
06-01-2021 22.9 (04:00) 20.5 (00:00) 21.7 23.61 (07:30) 15.83 (12:20) 0.8 0 0 0.8 0
05-01-2021 21.8 (15:40) 20 (00:00) 20.9 14.17 (13:10) 10.28 (13:10) 0 0 0 0 0
22-01-2021 21.5 (15:10) 17.7 (00:00) 19.6 12.78 (23:20) 8.33 (23:40) 0 0 0 0 0
26-01-2021 21.2 (14:10) 17.5 (00:00) 19.4 17.78 (15:10) 11.39 (16:10) 0 0 0 0 0
29-12-2020 21.8 (11:50) 17.4 (00:00) 19.6 10 (04:40) 6.11 (17:50) 0 0 0 0 0
04-01-2021 22.9 (20:20) 16.9 (00:00) 19.9 17.78 (21:00) 12.5 (20:20) 0 0 0 0 0
23-01-2021 22.4 (15:00) 16.8 (00:00) 19.6 13.33 (01:30) 8.33 (01:10) 0 0 0 0 0
03-01-2021 20.9 (16:00) 16.6 (00:00) 18.8 6.11 (00:50) 3.89 (18:30) 0 0 0 0 0
14-01-2021 19.1 (12:00) 16.6 (22:30) 17.9 10.28 (20:10) 6.11 (20:10) 0 0 0 0 0
21-01-2021 22.1 (16:40) 16.5 (00:00) 19.3 11.39 (12:10) 7.22 (14:10) 0 0 0 0 0
24-01-2021 22.6 (17:20) 16.4 (00:00) 19.5 6.11 (13:10) 3.61 (13:10) 0 0 0 0 0
16-01-2021 20.1 (14:00) 16.4 (00:00) 18.3 14.44 (13:10) 7.78 (13:10) 0 0 0 0 0
28-12-2020 24.1 (16:10) 16.3 (00:00) 20.2 9.72 (19:40) 5.56 (19:40) 0 0 0 0 0
15-01-2021 19.5 (17:10) 16.1 (00:00) 17.8 13.06 (14:10) 7.22 (02:00) 0 0 0 0 0
31-12-2020 20.5 (14:40) 16.1 (00:00) 18.3 11.11 (23:10) 5.56 (16:50) 0 0 0 0 0
13-01-2021 19.6 (15:10) 16 (00:00) 17.8 12.78 (13:10) 7.78 (13:10) 0 0 0 0 0
25-01-2021 22.1 (15:00) 15.9 (00:00) 19 15 (21:30) 10 (21:30) 0 0 0 0 0
01-01-2021 20.1 (11:20) 15.6 (00:00) 17.9 11.39 (17:10) 7.22 (17:10) 0.2 0 0 0 0.2
17-01-2021 22 (16:30) 15.5 (00:00) 18.8 11.39 (00:50) 6.67 (00:50) 0 0 0 0 0
19-01-2021 21 (10:50) 15.4 (00:00) 18.2 7.5 (05:30) 4.17 (13:50) 0 0 0 0 0
30-12-2020 20.3 (15:20) 15.4 (00:00) 17.8 11.39 (16:50) 7.22 (11:20) 0 0 0 0 0
02-01-2021 19.7 (15:00) 15.4 (00:00) 17.6 9.44 (00:50) 5.28 (06:20) 0 0 0 0 0
18-01-2021 22.5 (16:20) 15.1 (00:00) 18.8 8.33 (06:40) 4.17 (01:30) 0 0 0 0 0
12-01-2021 19.3 (15:10) 14.7 (00:00) 17 10 (10:50) 7.5 (10:50) 0 0 0 0 0
08-01-2021 21 (00:00) 14.7 (00:00) 17.8 25 (00:10) 13.61 (00:30) 10.6 0 0 2 8.6
20-01-2021 21.3 (10:20) 14.6 (00:00) 17.9 6.39 (23:00) 5 (08:00) 0 0 0 0 0
10-01-2021 19.1 (15:10) 14.3 (06:30) 16.7 17.78 (11:10) 11.67 (04:20) 1 0.4 0 0.2 0.4
09-01-2021 17.9 (13:50) 14.3 (00:00) 16.1 13.33 (14:10) 9.44 (03:30) 7.8 7.4 0 0 0.4
11-01-2021 18.4 (16:00) 14.1 (00:00) 16.3 15 (00:30) 10 (00:20) 3.6 2.4 0 1.2 0

Gráficas

Temp. máximas Temp. mínimas Temp. medias Precipitaciones Rachas de viento máximas Velocidades máximas media en intervalos de 10 minutos

Datos horarios

Fecha y hora oficial Temperatura (ºC) Velocidad del viento (km/h) Dirección del viento Racha (km/h) Dirección de racha Precipitación (mm) Presión (hPa) Tendencia (hPa) Humedad (%)
2021-01-26 23:00:00 18.4 29 Nordeste 55 Nordeste 0 -- -- 74
2021-01-26 22:00:00 18.4 38 Nordeste 55 Norte 0 -- -- 74
2021-01-26 21:00:00 18.5 31 Nordeste 52 Nordeste 0 -- -- 74
2021-01-26 20:00:00 18.5 28 Nordeste 49 Nordeste 0 -- -- 74
2021-01-26 19:00:00 18.8 24 Nordeste 51 Nordeste 0 -- -- 72
2021-01-26 18:00:00 19.8 27 Nordeste 57 Nordeste 0 -- -- 68
2021-01-26 17:00:00 20.6 31 Nordeste 63 Nordeste 0 -- -- 65
2021-01-26 16:00:00 20.8 38 Nordeste 64 Nordeste 0 -- -- 62
2021-01-26 15:00:00 20.9 33 Nordeste 60 Nordeste 0 -- -- 62
2021-01-26 14:00:00 21 35 Nordeste 57 Nordeste 0 -- -- 60
2021-01-26 13:00:00 20.8 34 Nordeste 60 Nordeste 0 -- -- 62
2021-01-26 12:00:00 20.5 34 Nordeste 61 Nordeste 0 -- -- 62
2021-01-26 11:00:00 19.9 39 Nordeste 63 Nordeste 0 -- -- 63
2021-01-26 10:00:00 19.5 33 Nordeste 56 Norte 0 -- -- 63
2021-01-26 09:00:00 19.1 19 Nordeste 44 Nordeste 0 -- -- 65
2021-01-26 08:00:00 18.1 29 Nordeste 56 Nordeste 0 -- -- 66
2021-01-26 07:00:00 17.9 37 Nordeste 63 Nordeste 0 -- -- 66
2021-01-26 06:00:00 17.7 21 Nordeste 47 Nordeste 0 -- -- 70
2021-01-26 05:00:00 17.5 27 Nordeste 55 Nordeste 0 -- -- 71
2021-01-26 04:00:00 17.6 28 Nordeste 49 Nordeste 0 -- -- 70
2021-01-26 03:00:00 17.5 28 Nordeste 45 Nordeste 0 -- -- 71
2021-01-26 02:00:00 17.6 21 Nordeste 40 Nordeste 0 -- -- 70
2021-01-26 01:00:00 17.6 25 Nordeste 43 Nordeste 0 -- -- 69
2021-01-26 00:00:00 17.9 19 Nordeste 45 Nordeste 0 -- -- 69
2021-01-25 23:00:00 18.2 27 Nordeste 50 Nordeste 0 -- -- 68
2021-01-25 22:00:00 18.4 33 Nordeste 54 Nordeste 0 -- -- 66
2021-01-25 21:00:00 18.5 33 Nordeste 50 Norte 0 -- -- 67
2021-01-25 20:00:00 18.6 28 Nordeste 51 Nordeste 0 -- -- 69
2021-01-25 19:00:00 18.5 27 Nordeste 50 Nordeste 0 -- -- 70
2021-01-25 18:00:00 19.4 28 Nordeste 46 Nordeste 0 -- -- 68
2021-01-25 17:00:00 20.9 23 Nordeste 52 Nordeste 0 -- -- 65
2021-01-25 16:00:00 21.5 22 Nordeste 42 Nordeste 0 -- -- 63
2021-01-25 15:00:00 22.1 19 Nordeste 40 Nordeste 0 -- -- 62
2021-01-25 14:00:00 21.5 24 Nordeste 42 Nordeste 0 -- -- 64
2021-01-25 13:00:00 21 26 Nordeste 40 Nordeste 0 -- -- 67
2021-01-25 12:00:00 20.9 13 Este 37 Nordeste 0 -- -- 70
2021-01-25 11:00:00 20.3 10 Este 24 Nordeste 0 -- -- 71
2021-01-25 10:00:00 20.7 6 Sur 11 Este 0 -- -- 64
2021-01-25 09:00:00 19 5 Este 16 Este 0 -- -- 70
2021-01-25 08:00:00 17.2 8 Este 14 Este 0 -- -- 71
2021-01-25 07:00:00 16.6 5 Este 13 Este 0 -- -- 77
2021-01-25 06:00:00 16.4 6 Este 13 Nordeste 0 -- -- 81
2021-01-25 05:00:00 16.1 8 Este 11 Este 0 -- -- 79
2021-01-25 04:00:00 16.6 6 Este 10 Este 0 -- -- 77
2021-01-25 03:00:00 16.7 6 Este 12 Nordeste 0 -- -- 74
2021-01-25 02:00:00 16.9 8 Este 11 Este 0 -- -- 72
2021-01-25 01:00:00 17.1 8 Este 10 Este 0 -- -- 69
2021-01-25 00:00:00 18.4 4 Sur 14 Este 0 -- -- 76
2021-01-24 23:00:00 18.1 6 Este 14 Sudeste 0 -- -- 71
2021-01-24 22:00:00 18 7 Este 12 Este 0 -- -- 76
2021-01-24 21:00:00 18.6 6 Este 15 Este 0 -- -- 77
2021-01-24 20:00:00 18.9 4 Este 12 Este 0 -- -- 76
2021-01-24 19:00:00 20 3 Sur 7 Sudoeste 0 -- -- 74
2021-01-24 18:00:00 21.9 5 Sudoeste 10 Sur 0 -- -- 70
2021-01-24 17:00:00 21.3 9 Sur 13 Sur 0 -- -- 71
2021-01-24 16:00:00 21.1 8 Sur 11 Sur 0 -- -- 75
2021-01-24 15:00:00 22.1 6 Sudoeste 12 Sur 0 -- -- 70
2021-01-24 14:00:00 21.6 6 Sudoeste 22 Sudoeste 0 -- -- 71
2021-01-24 13:00:00 21.2 11 Sur 14 Sur 0 -- -- 70
2021-01-24 12:00:00 21.2 5 Sur 10 Sur 0 -- -- 70
2021-01-24 11:00:00 21.1 4 Sudoeste 7 Oeste 0 -- -- 70
2021-01-24 10:00:00 20.7 4 Sur 10 Este 0 -- -- 72
2021-01-24 09:00:00 17.3 8 Este 13 Este 0 -- -- 77
2021-01-24 08:00:00 16.9 8 Este 20 Este 0 -- -- 77
2021-01-24 07:00:00 17.2 6 Sudeste 13 Este 0 -- -- 80
2021-01-24 06:00:00 16.7 9 Este 12 Este 0 -- -- 79
2021-01-24 05:00:00 16.9 7 Este 15 Sudeste 0 -- -- 76
2021-01-24 04:00:00 16.8 8 Este 14 Este 0 -- -- 79
2021-01-24 03:00:00 17.4 8 Este 15 Este 0 -- -- 77
2021-01-24 02:00:00 17.8 11 Sudeste 19 Sudeste 0 -- -- 75
2021-01-24 01:00:00 17.4 10 Sudeste 19 Sudeste 0 -- -- 75
2021-01-24 00:00:00 17.6 9 Sudeste 23 Este 0 -- -- 74
2021-01-23 23:00:00 17.9 9 Este 20 Este 0 -- -- 74
2021-01-23 22:00:00 18.1 14 Este 42 Este 0 -- -- 72
2021-01-23 21:00:00 18.1 14 Nordeste 31 Nordeste 0 -- -- 73
2021-01-23 20:00:00 18.3 14 Este 37 Este 0 -- -- 73
2021-01-23 19:00:00 18.9 10 Este 29 Nordeste 0 -- -- 71
2021-01-23 18:00:00 19.2 14 Nordeste 37 Nordeste 0 -- -- 70
2021-01-23 17:00:00 20.4 14 Nordeste 39 Nordeste 0 -- -- 66
2021-01-23 16:00:00 21.2 17 Nordeste 38 Nordeste 0 -- -- 64
2021-01-23 15:00:00 22.4 8 Nordeste 41 Este 0 -- -- 61
2021-01-23 14:00:00 21.4 21 Nordeste 46 Nordeste 0 -- -- 66
2021-01-23 13:00:00 20.9 9 Sudoeste 18 Sur 0 -- -- 71
2021-01-23 12:00:00 20 12 Sudeste 38 Nordeste 0 -- -- 75
2021-01-23 11:00:00 20 24 Nordeste 40 Nordeste 0 -- -- 75
2021-01-23 10:00:00 20 9 Sudeste 19 Nordeste 0 -- -- 72
2021-01-23 09:00:00 19.3 8 Este 26 Nordeste 0 -- -- 76
2021-01-23 08:00:00 17.7 12 Este 29 Este 0 -- -- 78
2021-01-23 07:00:00 17.3 6 Nordeste 17 Nordeste 0 -- -- 79
2021-01-23 06:00:00 17.3 2 Sudoeste 12 Este 0 -- -- 79
2021-01-23 05:00:00 18 2 Sudoeste 18 Sudeste 0 -- -- 78
2021-01-23 04:00:00 18.4 4 Sur 37 Este 0 -- -- 77
2021-01-23 03:00:00 18.5 19 Nordeste 46 Nordeste 0 -- -- 77
2021-01-23 02:00:00 18.7 30 Nordeste 48 Nordeste 0 -- -- 76
2021-01-23 01:00:00 18.6 28 Nordeste 45 Nordeste 0 -- -- 77
2021-01-23 00:00:00 18.9 26 Norte 46 Nordeste 0 -- -- 76
2021-01-22 23:00:00 18.6 24 Norte 38 Norte 0 -- -- 79
2021-01-22 22:00:00 19 15 Nordeste 41 Norte 0 -- -- 75
2021-01-22 21:00:00 19.2 21 Norte 40 Nordeste 0 -- -- 75
2021-01-22 20:00:00 19.5 18 Nordeste 37 Norte 0 -- -- 73
2021-01-22 19:00:00 19.6 18 Nordeste 39 Nordeste 0 -- -- 73
2021-01-22 18:00:00 20.6 23 Nordeste 40 Nordeste 0 -- -- 67
2021-01-22 17:00:00 21.1 22 Nordeste 43 Nordeste 0 -- -- 64
2021-01-22 16:00:00 21.2 28 Nordeste 42 Nordeste 0 -- -- 65
2021-01-22 15:00:00 21.2 23 Nordeste 42 Nordeste 0 -- -- 67
2021-01-22 14:00:00 21 26 Nordeste 43 Nordeste 0 -- -- 68
2021-01-22 13:00:00 20.9 22 Nordeste 45 Norte 0 -- -- 68
2021-01-22 12:00:00 20.5 19 Norte 45 Norte 0 -- -- 69
2021-01-22 11:00:00 20.3 19 Norte 35 Norte 0 -- -- 70
2021-01-22 10:00:00 19.6 22 Nordeste 37 Nordeste 0 -- -- 77
2021-01-22 09:00:00 19.1 12 Nordeste 28 Nordeste 0 -- -- 80
2021-01-22 08:00:00 17.7 15 Norte 23 Nordeste 0 -- -- 87
2021-01-22 07:00:00 18.2 13 Nordeste 25 Norte 0 -- -- 84
2021-01-22 06:00:00 18.3 13 Nordeste 28 Nordeste 0 -- -- 82
2021-01-22 05:00:00 18.3 7 Nordeste 22 Nordeste 0 -- -- 82
2021-01-22 04:00:00 18.3 14 Nordeste 27 Norte 0 -- -- 82
2021-01-22 03:00:00 18.1 13 Nordeste 25 Norte 0 -- -- 85
2021-01-22 02:00:00 18.7 12 Norte 25 Este 0 -- -- 81
2021-01-22 01:00:00 18.2 14 Nordeste 27 Norte 0 -- -- 85
2021-01-22 00:00:00 18.5 13 Nordeste 30 Nordeste 0 -- -- 83
2021-01-21 23:00:00 19 13 Nordeste 27 Nordeste 0 -- -- 78
2021-01-21 22:00:00 19.3 19 Norte 31 Norte 0 -- -- 75
2021-01-21 21:00:00 19.9 15 Nordeste 28 Nordeste 0 -- -- 63
2021-01-21 20:00:00 20.8 24 Norte 37 Norte 0 -- -- 47
2021-01-21 19:00:00 21.2 18 Nordeste 29 Nordeste 0 -- -- 38
2021-01-21 18:00:00 21.9 15 Nordeste 27 Nordeste 0 -- -- 49
2021-01-21 17:00:00 22.1 14 Nordeste 28 Norte 0 -- -- 57
2021-01-21 16:00:00 20.9 26 Norte 37 Norte 0 -- -- 68
2021-01-21 15:00:00 21 25 Norte 34 Norte 0 -- -- 68
2021-01-21 14:00:00 20.7 24 Norte 32 Norte 0 -- -- 69
2021-01-21 13:00:00 20.7 21 Norte 41 Norte 0 -- -- 68
2021-01-21 12:00:00 20.3 24 Norte 30 Norte 0 -- -- 69
2021-01-21 11:00:00 21.2 11 Nordeste 23 Nordeste 0 -- -- 62
2021-01-21 10:00:00 19.8 10 Este 21 Nordeste 0 -- -- 70
2021-01-21 09:00:00 19 7 Nordeste 16 Este 0 -- -- 72
2021-01-21 08:00:00 17.3 6 Nordeste 17 Sudeste 0 -- -- 74
2021-01-21 07:00:00 16.9 9 Este 18 Nordeste 0 -- -- 74
2021-01-21 06:00:00 17 8 Este 17 Sudeste 0 -- -- 72
2021-01-21 05:00:00 17 9 Este 15 Sudeste 0 -- -- 70
2021-01-21 04:00:00 16.9 6 Este 17 Este 0 -- -- 72
2021-01-21 03:00:00 16.8 8 Este 18 Este 0 -- -- 71
2021-01-21 02:00:00 17.1 9 Este 17 Este 0 -- -- 70
2021-01-21 01:00:00 17.6 11 Nordeste 23 Nordeste 0 -- -- 70
2021-01-21 00:00:00 17.4 13 Nordeste 22 Nordeste 0 -- -- 70
2021-01-20 23:00:00 17.3 12 Nordeste 23 Nordeste 0 -- -- 67
2021-01-20 22:00:00 16.2 8 Este 15 Este 0 -- -- 70
2021-01-20 21:00:00 16.6 7 Este 13 Este 0 -- -- 72
2021-01-20 20:00:00 17.5 5 Nordeste 11 Nordeste 0 -- -- 70
2021-01-20 19:00:00 18.2 9 Norte 14 Norte 0 -- -- 70
2021-01-20 18:00:00 19.8 6 Noroeste 9 Norte 0 -- -- 64
2021-01-20 17:00:00 20.7 4 Oeste 8 Noroeste 0 -- -- 60
2021-01-20 16:00:00 20.5 5 Noroeste 10 Oeste 0 -- -- 60
2021-01-20 15:00:00 20.1 5 Oeste 10 Oeste 0 -- -- 60
2021-01-20 14:00:00 19.9 7 Oeste 12 Sudoeste 0 -- -- 62
2021-01-20 13:00:00 19.6 7 Oeste 12 Sudoeste 0 -- -- 64
2021-01-20 12:00:00 19.8 6 Sudoeste 11 Sur 0 -- -- 61
2021-01-20 11:00:00 20.1 7 Sur 14 Sur 0 -- -- 58
2021-01-20 10:00:00 19.4 3 Este 20 Este 0 -- -- 55
2021-01-20 09:00:00 16.1 15 Este 22 Este 0 -- -- 61
2021-01-20 08:00:00 14.7 18 Este 22 Este 0 -- -- 65
2021-01-20 07:00:00 14.7 14 Este 22 Este 0 -- -- 69
2021-01-20 06:00:00 15.2 14 Este 21 Este 0 -- -- 70
2021-01-20 05:00:00 15.2 8 Este 17 Este 0 -- -- 70
2021-01-20 04:00:00 15.2 9 Este 16 Este 0 -- -- 68
2021-01-20 03:00:00 15.4 8 Este 15 Este 0 -- -- 70
2021-01-20 02:00:00 15.7 9 Este 16 Este 0 -- -- 70
2021-01-20 01:00:00 15.8 10 Este 15 Este 0 -- -- 68
2021-01-20 00:00:00 15.9 10 Este 14 Este 0 -- -- 68
2021-01-19 23:00:00 17.1 7 Este 12 Sudeste 0 -- -- 71
2021-01-19 22:00:00 17.2 6 Sudeste 12 Sudeste 0 -- -- 71
2021-01-19 21:00:00 17.5 6 Sudeste 10 Sur 0 -- -- 71
2021-01-19 20:00:00 17.9 6 Sudoeste 10 Sudoeste 0 -- -- 71
2021-01-19 19:00:00 18 8 Sudoeste 14 Sudoeste 0 -- -- 69
2021-01-19 18:00:00 19.3 10 Oeste 16 Sudoeste 0 -- -- 67
2021-01-19 17:00:00 20.6 7 Sudoeste 12 Sudoeste 0 -- -- 59
2021-01-19 16:00:00 20.5 6 Oeste 17 Sudoeste 0 -- -- 59
2021-01-19 15:00:00 20.1 11 Sudoeste 21 Sudoeste 0 -- -- 61
2021-01-19 14:00:00 19.4 15 Sudoeste 19 Sudoeste 0 -- -- 63
2021-01-19 13:00:00 19.3 10 Oeste 14 Oeste 0 -- -- 56
2021-01-19 12:00:00 19.7 5 Norte 10 Norte 0 -- -- 58
2021-01-19 11:00:00 20.6 2 Sudeste 10 Sur 0 -- -- 50
2021-01-19 10:00:00 20.3 5 Sur 17 Este 0 -- -- 43
2021-01-19 09:00:00 16.6 12 Este 19 Este 0 -- -- 35
2021-01-19 08:00:00 16.1 12 Este 20 Sudeste 0 -- -- 46
2021-01-19 07:00:00 16 11 Sudeste 22 Sudeste 0 -- -- 51
2021-01-19 06:00:00 15.8 9 Sudeste 27 Este 0 -- -- 50
2021-01-19 05:00:00 15.8 9 Este 19 Este 0 -- -- 51
2021-01-19 04:00:00 15.8 9 Este 20 Este 0 -- -- 42
2021-01-19 03:00:00 15.6 8 Este 22 Este 0 -- -- 53
2021-01-19 02:00:00 15.8 6 Nordeste 27 Este 0 -- -- 60
2021-01-19 01:00:00 16.3 9 Este 21 Sudeste 0 -- -- 60
2021-01-19 00:00:00 16.1 8 Este 20 Este 0 -- -- 56
2021-01-18 23:00:00 16.4 9 Este 18 Este 0 -- -- 59
2021-01-18 22:00:00 16.5 10 Sudeste 21 Este 0 -- -- 68
2021-01-18 21:00:00 16.7 8 Este 23 Este 0 -- -- 68
2021-01-18 20:00:00 17.4 12 Sudeste 18 Este 0 -- -- 67
2021-01-18 19:00:00 18.3 8 Este 15 Sudeste 0 -- -- 65
2021-01-18 18:00:00 21.3 5 Sudoeste 12 Sudeste 0 -- -- 58
2021-01-18 17:00:00 22 7 Sur 10 Sur 0 -- -- 54
2021-01-18 16:00:00 21.6 5 Sudoeste 12 Sur 0 -- -- 52
2021-01-18 15:00:00 21.3 9 Sur 12 Sur 0 -- -- 45
2021-01-18 14:00:00 20.6 6 Sudoeste 10 Sur 0 -- -- 49
2021-01-18 13:00:00 20.2 6 Sudoeste 13 Sudoeste 0 -- -- 50
2021-01-18 12:00:00 20 10 Sur 13 Sur 0 -- -- 47
2021-01-18 11:00:00 20.1 7 Sur 22 Sudeste 0 -- -- 37
2021-01-18 10:00:00 18.8 10 Sudeste 21 Sudeste 0 -- -- 43
2021-01-18 09:00:00 16.7 12 Este 22 Sudeste 0 -- -- 45
2021-01-18 08:00:00 15.8 7 Este 27 Nordeste 0 -- -- 59
2021-01-18 07:00:00 15.9 12 Este 30 Sudeste 0 -- -- 64
2021-01-18 06:00:00 15.8 9 Este 24 Este 0 -- -- 56
2021-01-18 05:00:00 16 10 Este 27 Este 0 -- -- 54
2021-01-18 04:00:00 16.2 8 Este 19 Sudeste 0 -- -- 51
2021-01-18 03:00:00 15.9 10 Este 19 Este 0 -- -- 52
2021-01-18 02:00:00 15.8 10 Este 21 Este 0 -- -- 44
2021-01-18 01:00:00 16.2 11 Sudeste 23 Este 0 -- -- 51
2021-01-18 00:00:00 16 11 Este 24 Nordeste 0 -- -- 58
2021-01-17 23:00:00 15.6 14 Este 23 Este 0 -- -- 58
2021-01-17 22:00:00 17.4 16 Nordeste 39 Nordeste 0 -- -- 60
2021-01-17 21:00:00 17 13 Nordeste 31 Este 0 -- -- 63
2021-01-17 20:00:00 17.3 19 Nordeste 36 Nordeste 0 -- -- 62
2021-01-17 19:00:00 17.6 15 Nordeste 30 Nordeste 0 -- -- 63
2021-01-17 18:00:00 18.7 18 Nordeste 28 Nordeste 0 -- -- 60
2021-01-17 17:00:00 19.2 16 Nordeste 24 Nordeste 0 -- -- 58
2021-01-17 16:00:00 21.2 7 Sur 13 Sudoeste 0 -- -- 55
2021-01-17 15:00:00 19.8 7 Oeste 12 Oeste 0 -- -- 58
2021-01-17 14:00:00 20.1 7 Sudoeste 23 Sudoeste 0 -- -- 59
2021-01-17 13:00:00 19.5 15 Sudoeste 20 Sur 0 -- -- 59
2021-01-17 12:00:00 19.4 11 Sur 17 Sudoeste 0 -- -- 55
2021-01-17 11:00:00 19.5 9 Sur 22 Este 0 -- -- 52
2021-01-17 10:00:00 18.1 10 Este 19 Este 0 -- -- 47
2021-01-17 09:00:00 16.8 10 Este 23 Sudeste 0 -- -- 54
2021-01-17 08:00:00 16.9 11 Este 40 Este 0 -- -- 57
2021-01-17 07:00:00 16.9 19 Nordeste 33 Nordeste 0 -- -- 57
2021-01-17 06:00:00 17.2 16 Este 40 Este 0 -- -- 56
2021-01-17 05:00:00 17.1 19 Nordeste 39 Este 0 -- -- 60
2021-01-17 04:00:00 16.9 16 Este 37 Nordeste 0 -- -- 57
2021-01-17 03:00:00 16.9 18 Nordeste 39 Nordeste 0 -- -- 59
2021-01-17 02:00:00 16.9 15 Nordeste 39 Este 0 -- -- 58
2021-01-17 01:00:00 17.1 20 Nordeste 41 Nordeste 0 -- -- 56
2021-01-17 00:00:00 17.3 22 Nordeste 36 Este 0 -- -- 57
2021-01-16 23:00:00 17.6 19 Este 41 Este 0 -- -- 56
2021-01-16 22:00:00 17.8 19 Nordeste 37 Este 0 -- -- 58
2021-01-16 21:00:00 17.9 17 Nordeste 30 Nordeste 0 -- -- 57
2021-01-16 20:00:00 18.1 16 Nordeste 35 Nordeste 0 -- -- 65
2021-01-16 19:00:00 17.9 23 Nordeste 43 Nordeste 0 -- -- 68
2021-01-16 18:00:00 18.9 26 Nordeste 46 Nordeste 0 -- -- 60
2021-01-16 17:00:00 19.7 21 Nordeste 42 Norte 0 -- -- 60
2021-01-16 16:00:00 19.8 26 Nordeste 45 Nordeste 0 -- -- 59
2021-01-16 15:00:00 20.1 21 Nordeste 48 Norte 0 -- -- 53
2021-01-16 14:00:00 20.1 22 Nordeste 52 Nordeste 0 -- -- 54
2021-01-16 13:00:00 19.8 24 Nordeste 44 Nordeste 0 -- -- 51
2021-01-16 12:00:00 19.7 18 Nordeste 46 Nordeste 0 -- -- 47
2021-01-16 11:00:00 19.1 26 Nordeste 43 Nordeste 0 -- -- 49
2021-01-16 10:00:00 18.5 20 Este 39 Nordeste 0 -- -- 53
2021-01-16 09:00:00 17.5 15 Nordeste 38 Este 0 -- -- 52
2021-01-16 08:00:00 16.8 16 Nordeste 36 Nordeste 0 -- -- 59
2021-01-16 07:00:00 16.9 16 Nordeste 35 Nordeste 0 -- -- 60
2021-01-16 06:00:00 16.4 15 Nordeste 40 Sudeste 0 -- -- 58
2021-01-16 05:00:00 16.6 17 Nordeste 46 Nordeste 0 -- -- 54
2021-01-16 04:00:00 16.6 18 Nordeste 35 Este 0 -- -- 57
2021-01-16 03:00:00 16.7 16 Nordeste 45 Nordeste 0 -- -- 62
2021-01-16 02:00:00 17.5 15 Nordeste 38 Este 0 -- -- 52
2021-01-16 01:00:00 17 17 Este 37 Nordeste 0 -- -- 54
2021-01-16 00:00:00 17 23 Nordeste 37 Nordeste 0 -- -- 53
2021-01-15 23:00:00 17.4 18 Nordeste 32 Nordeste 0 -- -- 56
2021-01-15 22:00:00 17.3 15 Nordeste 34 Nordeste 0 -- -- 56
2021-01-15 21:00:00 17.2 15 Nordeste 41 Nordeste 0 -- -- 53
2021-01-15 20:00:00 17.5 15 Nordeste 35 Nordeste 0 -- -- 53
2021-01-15 19:00:00 17.7 20 Nordeste 39 Nordeste 0 -- -- 52
2021-01-15 18:00:00 18.1 20 Nordeste 38 Nordeste 0 -- -- 60
2021-01-15 17:00:00 19.4 20 Nordeste 37 Nordeste 0 -- -- 47
2021-01-15 16:00:00 18.6 19 Nordeste 35 Nordeste 0 -- -- 51
2021-01-15 15:00:00 17.6 17 Nordeste 47 Nordeste 0 -- -- 62
2021-01-15 14:00:00 19.3 20 Nordeste 39 Nordeste 0 -- -- 50
2021-01-15 13:00:00 18.1 18 Nordeste 36 Nordeste 0 -- -- 51
2021-01-15 12:00:00 18.5 17 Nordeste 35 Nordeste 0 -- -- 52
2021-01-15 11:00:00 17.6 12 Nordeste 30 Nordeste 0 -- -- 54
2021-01-15 10:00:00 17.2 19 Nordeste 36 Nordeste 0 -- -- 53
2021-01-15 09:00:00 16.9 21 Nordeste 38 Nordeste 0 -- -- 57
2021-01-15 08:00:00 16.8 16 Nordeste 33 Nordeste 0 -- -- 57
2021-01-15 07:00:00 16.8 15 Nordeste 29 Nordeste 0 -- -- 60
2021-01-15 06:00:00 16.6 14 Nordeste 39 Nordeste 0 -- -- 56
2021-01-15 05:00:00 16.8 21 Nordeste 36 Nordeste 0 -- -- 53
2021-01-15 04:00:00 16.7 15 Nordeste 38 Nordeste 0 -- -- 52
2021-01-15 03:00:00 16.9 21 Nordeste 45 Nordeste 0 -- -- 53
2021-01-15 02:00:00 17 26 Nordeste 41 Nordeste 0 -- -- 62
2021-01-15 01:00:00 16.7 15 Nordeste 34 Nordeste 0 -- -- 65
2021-01-15 00:00:00 16.8 14 Nordeste 33 Nordeste 0 -- -- 61
2021-01-14 23:00:00 16.9 13 Nordeste 29 Nordeste 0 -- -- 50
2021-01-14 22:00:00 16.9 14 Nordeste 28 Nordeste 0 -- -- 53
2021-01-14 21:00:00 17 14 Nordeste 37 Nordeste 0 -- -- 56
2021-01-14 20:00:00 17.3 17 Nordeste 34 Nordeste 0 -- -- 58
2021-01-14 19:00:00 17.1 12 Nordeste 32 Nordeste 0 -- -- 60
2021-01-14 18:00:00 18.1 18 Nordeste 32 Nordeste 0 -- -- 56
2021-01-14 17:00:00 18 14 Nordeste 29 Nordeste 0 -- -- 57
2021-01-14 16:00:00 18.3 15 Nordeste 30 Este 0 -- -- 60
2021-01-14 15:00:00 18.4 14 Nordeste 33 Nordeste 0 -- -- 56
2021-01-14 14:00:00 18.4 13 Nordeste 31 Nordeste 0 -- -- 56
2021-01-14 13:00:00 18 16 Nordeste 30 Nordeste 0 -- -- 60
2021-01-14 12:00:00 19.1 11 Este 20 Nordeste 0 -- -- 52
2021-01-14 11:00:00 18.2 10 Este 26 Este 0 -- -- 58
2021-01-14 10:00:00 17.8 10 Este 27 Este 0 -- -- 59
2021-01-14 09:00:00 17.4 9 Este 25 Nordeste 0 -- -- 60
2021-01-14 08:00:00 17.3 12 Este 30 Este 0 -- -- 61
2021-01-14 07:00:00 17.3 10 Este 29 Este 0 -- -- 60
2021-01-14 06:00:00 17.3 12 Este 30 Nordeste 0 -- -- 59
2021-01-14 05:00:00 17.1 12 Nordeste 18 Este 0 -- -- 60
2021-01-14 04:00:00 17.1 8 Este 17 Este 0 -- -- 63
2021-01-14 03:00:00 17.1 8 Nordeste 18 Nordeste 0 -- -- 66
2021-01-14 02:00:00 17.2 6 Nordeste 17 Nordeste 0 -- -- 67
2021-01-14 01:00:00 17.3 6 Nordeste 15 Este 0 -- -- 66
2021-01-14 00:00:00 17.2 7 Nordeste 13 Nordeste 0 -- -- 66
2021-01-13 23:00:00 17.3 5 Este 18 Nordeste 0 -- -- 62
2021-01-13 22:00:00 17.4 9 Nordeste 16 Este 0 -- -- 61
2021-01-13 21:00:00 17.3 5 Nordeste 16 Este 0 -- -- 57
2021-01-13 20:00:00 17.4 7 Este 20 Nordeste 0 -- -- 57
2021-01-13 19:00:00 17.5 9 Nordeste 35 Nordeste 0 -- -- 58
2021-01-13 18:00:00 18.2 19 Nordeste 39 Este 0 -- -- 56
2021-01-13 17:00:00 19.1 18 Nordeste 37 Nordeste 0 -- -- 53
2021-01-13 16:00:00 19.2 19 Nordeste 43 Nordeste 0 -- -- 52
2021-01-13 15:00:00 19.2 24 Nordeste 42 Nordeste 0 -- -- 52
2021-01-13 14:00:00 19 22 Nordeste 46 Nordeste 0 -- -- 54
2021-01-13 13:00:00 18.8 26 Nordeste 44 Nordeste 0 -- -- 53
2021-01-13 12:00:00 18.6 24 Nordeste 41 Nordeste 0 -- -- 56
2021-01-13 11:00:00 17.8 19 Nordeste 33 Nordeste 0 -- -- 60
2021-01-13 10:00:00 17.1 11 Este 28 Nordeste 0 -- -- 64
2021-01-13 09:00:00 16.7 14 Nordeste 25 Nordeste 0 -- -- 65
2021-01-13 08:00:00 16.6 13 Nordeste 32 Este 0 -- -- 67
2021-01-13 07:00:00 16.4 14 Nordeste 34 Este 0 -- -- 67
2021-01-13 06:00:00 16.4 11 Nordeste 29 Nordeste 0 -- -- 66
2021-01-13 05:00:00 16.1 10 Este 27 Nordeste 0 -- -- 71
2021-01-13 04:00:00 16.3 9 Nordeste 22 Nordeste 0 -- -- 70
2021-01-13 03:00:00 16.3 11 Nordeste 22 Este 0 -- -- 68
2021-01-13 02:00:00 16.5 9 Nordeste 28 Nordeste 0 -- -- 69
2021-01-13 01:00:00 16.9 15 Nordeste 25 Nordeste 0 -- -- 64
2021-01-13 00:00:00 16.4 8 Nordeste 19 Este 0 -- -- 67
2021-01-12 23:00:00 16.7 10 Este 25 Nordeste 0 -- -- 63
2021-01-12 22:00:00 17 13 Nordeste 26 Nordeste 0 -- -- 65
2021-01-12 21:00:00 16.3 8 Nordeste 16 Nordeste 0 -- -- 67
2021-01-12 20:00:00 16.6 7 Este 19 Este 0 -- -- 65
2021-01-12 19:00:00 16.6 10 Nordeste 35 Nordeste 0 -- -- 67
2021-01-12 18:00:00 18.1 18 Nordeste 30 Nordeste 0 -- -- 62
2021-01-12 17:00:00 18.9 14 Nordeste 31 Nordeste 0 -- -- 52
2021-01-12 16:00:00 19.2 14 Nordeste 30 Nordeste 0 -- -- 48
2021-01-12 15:00:00 19 15 Nordeste 28 Nordeste 0 -- -- 51
2021-01-12 14:00:00 17.8 7 Este 31 Nordeste 0 -- -- 53
2021-01-12 13:00:00 16.7 19 Nordeste 34 Este 0 -- -- 68
2021-01-12 12:00:00 16.3 9 Nordeste 36 Norte 0 -- -- 68
2021-01-12 11:00:00 15.7 18 Norte 36 Norte 0 -- -- 73
2021-01-12 10:00:00 17 7 Nordeste 26 Este 0 -- -- 58
2021-01-12 09:00:00 15.5 11 Este 27 Este 0 -- -- 66
2021-01-12 08:00:00 14.7 14 Nordeste 27 Nordeste 0 -- -- 71
2021-01-12 07:00:00 15.8 16 Este 24 Este 0 -- -- 62
2021-01-12 06:00:00 15.8 9 Nordeste 26 Nordeste 0 -- -- 68
2021-01-12 05:00:00 15.2 11 Este 20 Sudeste 0 -- -- 71
2021-01-12 04:00:00 15.3 8 Este 18 Sudeste 0 -- -- 67
2021-01-12 03:00:00 15.5 7 Este 18 Este 0 -- -- 67
2021-01-12 02:00:00 15.7 8 Este 16 Este 0 -- -- 64
2021-01-12 01:00:00 16 8 Este 18 Este 0 -- -- 63
2021-01-12 00:00:00 16.1 9 Este 18 Este 0 -- -- 62
2021-01-11 23:00:00 16.7 14 Nordeste 27 Nordeste 0 -- -- 58
2021-01-11 22:00:00 16.5 9 Nordeste 29 Nordeste 0 -- -- 61
2021-01-11 21:00:00 16.6 11 Nordeste 21 Nordeste 0 -- -- 63
2021-01-11 20:00:00 16.6 13 Nordeste 28 Nordeste 0 -- -- 59
2021-01-11 19:00:00 15.8 10 Nordeste 20 Sudeste 0 -- -- 72
2021-01-11 18:00:00 15.2 9 Este 32 Norte 1.2 -- -- 73
2021-01-11 17:00:00 17.3 20 Norte 33 Norte 0 -- -- 60
2021-01-11 16:00:00 18.4 16 Nordeste 28 Norte 0 -- -- 56
2021-01-11 15:00:00 17.4 18 Norte 34 Norte 0 -- -- 56
2021-01-11 14:00:00 17.6 18 Norte 44 Norte 0 -- -- 62
2021-01-11 13:00:00 17.2 22 Norte 46 Norte 0 -- -- 67
2021-01-11 12:00:00 16.9 18 Norte 30 Norte 0 -- -- 67
2021-01-11 11:00:00 16 10 Este 49 Nordeste 0 -- -- 61
2021-01-11 10:00:00 16.6 23 Norte 37 Norte 0 -- -- 67
2021-01-11 09:00:00 16.2 9 Nordeste 30 Norte 0 -- -- 59
2021-01-11 08:00:00 14.7 12 Este 21 Este 0 -- -- 60
2021-01-11 07:00:00 14.8 10 Este 18 Este 0 -- -- 62
2021-01-11 06:00:00 14.8 9 Este 22 Norte 0 -- -- 60
2021-01-11 05:00:00 15.6 12 Nordeste 26 Norte 0 -- -- 56
2021-01-11 04:00:00 16.1 15 Nordeste 26 Nordeste 0 -- -- 60
2021-01-11 03:00:00 15.2 11 Este 27 Norte 0 -- -- 70
2021-01-11 02:00:00 14.9 9 Este 24 Este 0.2 -- -- 77
2021-01-11 01:00:00 14.4 12 Nordeste 54 Norte 2.2 -- -- 83
2021-01-11 00:00:00 15.7 15 Norte 33 Noroeste 0.2 -- -- 77
2021-01-10 23:00:00 15.4 14 Nordeste 45 Norte 0.2 -- -- 76
2021-01-10 22:00:00 16.3 35 Norte 52 Norte 0 -- -- 73
2021-01-10 21:00:00 17.6 21 Norte 40 Noroeste 0 -- -- 64
2021-01-10 20:00:00 18 27 Norte 47 Norte 0 -- -- 61
2021-01-10 19:00:00 18 28 Norte 36 Norte 0 -- -- 61
2021-01-10 18:00:00 17.7 23 Noroeste 41 Norte 0 -- -- 70
2021-01-10 17:00:00 17.7 35 Norte 45 Norte 0.2 -- -- 67
2021-01-10 16:00:00 19 22 Noroeste 34 Noroeste 0 -- -- 61
2021-01-10 15:00:00 19 26 Noroeste 36 Norte 0 -- -- 54
2021-01-10 14:00:00 18.4 23 Noroeste 38 Noroeste 0 -- -- 64
2021-01-10 13:00:00 18.2 27 Noroeste 39 Noroeste 0 -- -- 65
2021-01-10 12:00:00 17.8 20 Noroeste 64 Noroeste 0 -- -- 67
2021-01-10 11:00:00 17.8 24 Norte 37 Norte 0 -- -- 63
2021-01-10 10:00:00 17 6 Norte 44 Norte 0 -- -- 63
2021-01-10 09:00:00 17.2 27 Norte 42 Norte 0 -- -- 67
2021-01-10 08:00:00 17.2 29 Norte 37 Noroeste 0 -- -- 67
2021-01-10 07:00:00 15.5 15 Sudeste 53 Noroeste 0 -- -- 73
2021-01-10 06:00:00 16.4 30 Noroeste 41 Noroeste 0 -- -- 72
2021-01-10 05:00:00 14.9 12 Sur 60 Noroeste 0 -- -- 78
2021-01-10 04:00:00 14.6 4 Este 47 Norte 0.4 -- -- 76
2021-01-10 03:00:00 16.8 25 Noroeste 42 Norte 0 -- -- 65
2021-01-10 02:00:00 17 17 Norte 30 Norte 0 -- -- 59
2021-01-10 01:00:00 15.2 9 Este 22 Nordeste 0 -- -- 66
2021-01-10 00:00:00 15.3 11 Este 32 Norte 0.4 -- -- 68
2021-01-09 23:00:00 15.7 13 Nordeste 35 Norte 0 -- -- 63
2021-01-09 22:00:00 16.6 14 Norte 30 Nordeste 0 -- -- 56
2021-01-09 21:00:00 16.4 13 Norte 33 Nordeste 0 -- -- 55
2021-01-09 20:00:00 16.1 12 Nordeste 38 Norte 0 -- -- 58
2021-01-09 19:00:00 16.7 17 Norte 44 Norte 0 -- -- 55
2021-01-09 18:00:00 17.1 21 Norte 39 Norte 0 -- -- 56
2021-01-09 17:00:00 17.5 22 Norte 39 Norte 0 -- -- 56
2021-01-09 16:00:00 17.9 10 Nordeste 35 Norte 0 -- -- 58
2021-01-09 15:00:00 17.5 15 Norte 48 Norte 0 -- -- 56
2021-01-09 14:00:00 17.3 30 Norte 38 Norte 0 -- -- 60
2021-01-09 13:00:00 17.6 10 Norte 27 Norte 0 -- -- 57
2021-01-09 12:00:00 17.1 7 Nordeste 33 Norte 0 -- -- 58
2021-01-09 11:00:00 17.3 15 Norte 28 Norte 0 -- -- 61
2021-01-09 10:00:00 16.3 24 Norte 44 Norte 0 -- -- 65
2021-01-09 09:00:00 16.4 17 Norte 37 Noroeste 0 -- -- 61
2021-01-09 08:00:00 16.5 25 Norte 34 Noroeste 0 -- -- 64
2021-01-09 07:00:00 16.3 20 Norte 27 Noroeste 0 -- -- 65
2021-01-09 06:00:00 14.5 8 Este 32 Noroeste 0.4 -- -- 72
2021-01-09 05:00:00 14.3 19 Noroeste 46 Noroeste 6.4 -- -- 80
2021-01-09 04:00:00 15.2 10 Nordeste 45 Noroeste 0.2 -- -- 68
2021-01-09 03:00:00 15.1 8 Nordeste 17 Noroeste 0.4 -- -- 72
2021-01-09 02:00:00 15.1 12 Este 21 Nordeste 0 -- -- 71
2021-01-09 01:00:00 15.3 11 Este 15 Este 0 -- -- 71
2021-01-09 00:00:00 15.5 8 Este 28 Norte 0 -- -- 71
2021-01-08 23:00:00 15.7 6 Este 28 Norte 0 -- -- 72
2021-01-08 22:00:00 15.2 9 Este 18 Este 0.6 -- -- 75
2021-01-08 21:00:00 15.3 9 Sudeste 21 Sudeste 2.8 -- -- 77
2021-01-08 20:00:00 15 7 Este 18 Sudeste 2.2 -- -- 81
2021-01-08 19:00:00 15.2 12 Sudeste 32 Norte 3 -- -- 81
2021-01-08 18:00:00 16.6 11 Sudeste 18 Sudeste 0 -- -- 74
2021-01-08 17:00:00 16.6 6 Este 32 Norte 1.4 -- -- 76
2021-01-08 16:00:00 17.9 18 Norte 36 Norte 0 -- -- 72
2021-01-08 15:00:00 17.8 22 Norte 37 Norte 0 -- -- 73
2021-01-08 14:00:00 17.7 22 Norte 42 Norte 0.6 -- -- 76
2021-01-08 13:00:00 18.2 29 Noroeste 38 Noroeste 0 -- -- 76
2021-01-08 12:00:00 18.3 23 Noroeste 33 Noroeste 0 -- -- 72
2021-01-08 11:00:00 18.2 25 Norte 40 Norte 0 -- -- 76
2021-01-08 10:00:00 18.8 12 Norte 39 Noroeste 0 -- -- 73
2021-01-08 09:00:00 19.1 26 Noroeste 54 Oeste 0 -- -- 71
2021-01-08 08:00:00 19.2 20 Oeste 42 Noroeste 0 -- -- 71
2021-01-08 07:00:00 19.1 5 Noroeste 21 Oeste 0 -- -- 73
2021-01-08 06:00:00 19.5 19 Oeste 36 Oeste 0 -- -- 72
2021-01-08 05:00:00 19 32 Oeste 54 Sudoeste 0 -- -- 76
2021-01-08 04:00:00 20.2 41 Sudoeste 62 Sudoeste 0 -- -- 69
2021-01-08 03:00:00 20.4 41 Sudoeste 68 Sur 0 -- -- 70
2021-01-08 02:00:00 20.1 44 Sudoeste 64 Sur 0 -- -- 78
2021-01-08 01:00:00 20.7 42 Sudoeste 90 Sudoeste 0 -- -- 73
2021-01-08 00:00:00 21 47 Sudoeste 69 Sudoeste 0 -- -- 72
2021-01-07 23:00:00 21.3 40 Sudoeste 81 Sudoeste 0 -- -- 70
2021-01-07 22:00:00 21.3 46 Sudoeste 71 Sudoeste 0.2 -- -- 73
2021-01-07 21:00:00 21.6 48 Sudoeste 81 Sudoeste 0 -- -- 71
2021-01-07 20:00:00 21.9 49 Sudoeste 71 Sudoeste 0 -- -- 69
2021-01-07 19:00:00 21.6 49 Sudoeste 81 Sudoeste 0 -- -- 71
2021-01-07 18:00:00 22.2 51 Sudoeste 77 Sur 0 -- -- 66
2021-01-07 17:00:00 21.9 56 Sudoeste 84 Sudoeste 0 -- -- 70
2021-01-07 16:00:00 22.3 51 Sudoeste 92 Sudoeste 0 -- -- 69
2021-01-07 15:00:00 21.7 55 Sudoeste 77 Sudoeste 0 -- -- 72
2021-01-07 14:00:00 21.9 54 Sudoeste 76 Sudoeste 0 -- -- 70
2021-01-07 13:00:00 21.8 44 Sudoeste 75 Sudoeste 0 -- -- 69
2021-01-07 12:00:00 21.9 56 Sudoeste 93 Sur 1.2 -- -- 69
2021-01-07 11:00:00 21.5 35 Sur 68 Sudoeste 1.4 -- -- 72
2021-01-07 10:00:00 21.8 37 Sudoeste 59 Sudoeste 0 -- -- 69
2021-01-07 09:00:00 21.8 39 Sudoeste 74 Sudoeste 0 -- -- 66
2021-01-07 08:00:00 21.6 42 Sudoeste 72 Sudoeste 0 -- -- 70
2021-01-07 07:00:00 21.4 36 Sur 59 Sur 0 -- -- 69
2021-01-07 06:00:00 21.2 33 Sudoeste 48 Sudoeste 0 -- -- 73
2021-01-07 05:00:00 20.8 29 Sudoeste 53 Sudoeste 0.2 -- -- 78
2021-01-07 04:00:00 21.5 32 Sudoeste 46 Sudoeste 0 -- -- 73
2021-01-07 03:00:00 21.2 32 Sudoeste 48 Sudoeste 0 -- -- 72
2021-01-07 02:00:00 21.2 34 Sudoeste 64 Sudoeste 0 -- -- 73
2021-01-07 01:00:00 21.2 40 Sudoeste 54 Sudoeste 0 -- -- 75
2021-01-07 00:00:00 21.5 38 Sudoeste 50 Sudoeste 0 -- -- 74
2021-01-06 23:00:00 21.6 27 Sudoeste 49 Sudoeste 0 -- -- 71
2021-01-06 22:00:00 21.7 33 Sudoeste 59 Sudeste 0 -- -- 70
2021-01-06 21:00:00 22.2 37 Sur 59 Sudoeste 0 -- -- 64
2021-01-06 20:00:00 21.4 35 Sudoeste 71 Sudoeste 0 -- -- 72
2021-01-06 19:00:00 21.6 39 Sudoeste 64 Sudoeste 0 -- -- 70
2021-01-06 18:00:00 21.8 42 Sudoeste 61 Sudoeste 0 -- -- 70
2021-01-06 17:00:00 22.1 36 Sudoeste 66 Sudoeste 0 -- -- 70
2021-01-06 16:00:00 21.7 41 Sudoeste 67 Sudoeste 0 -- -- 76
2021-01-06 15:00:00 21.8 48 Sudoeste 67 Sudoeste 0.8 -- -- 77
2021-01-06 14:00:00 21.4 53 Sudoeste 82 Sudoeste 0 -- -- 80
2021-01-06 13:00:00 22.3 49 Sudoeste 75 Sudoeste 0 -- -- 73
2021-01-06 12:00:00 22.5 52 Sudoeste 73 Sudoeste 0 -- -- 70
2021-01-06 11:00:00 22.7 53 Sudoeste 71 Sudoeste 0 -- -- 69
2021-01-06 10:00:00 22.1 46 Sudoeste 74 Sudoeste 0 -- -- 70
2021-01-06 09:00:00 22.5 42 Sudoeste 77 Sur 0 -- -- 66
2021-01-06 08:00:00 22.1 36 Sur 85 Sur 0 -- -- 69
2021-01-06 07:00:00 21.9 37 Sudoeste 63 Sur 0 -- -- 68
2021-01-06 06:00:00 22 37 Sur 68 Sur 0 -- -- 64
2021-01-06 05:00:00 22.6 41 Sur 66 Sur 0 -- -- 56
2021-01-06 04:00:00 22.9 37 Sur 66 Sur 0 -- -- 52
2021-01-06 03:00:00 21.2 29 Sur 48 Sur 0 -- -- 68
2021-01-06 02:00:00 21 32 Sudoeste 45 Sur 0 -- -- 67
2021-01-06 01:00:00 20.7 27 Sudoeste 35 Sudoeste 0 -- -- 73
2021-01-06 00:00:00 20.8 25 Sudoeste 39 Sudoeste 0 -- -- 72
2021-01-05 23:00:00 20.6 22 Sudoeste 31 Sudoeste 0 -- -- 74
2021-01-05 22:00:00 20.8 20 Sudoeste 34 Sudoeste 0 -- -- 75
2021-01-05 21:00:00 20.5 22 Sudoeste 40 Sudoeste 0 -- -- 77
2021-01-05 20:00:00 20.7 28 Sudoeste 39 Sudoeste 0 -- -- 76
2021-01-05 19:00:00 20.6 28 Sudoeste 47 Sudoeste 0 -- -- 78
2021-01-05 18:00:00 21 29 Sudoeste 44 Sudoeste 0 -- -- 77
2021-01-05 17:00:00 21 33 Sudoeste 51 Sudoeste 0 -- -- 79
2021-01-05 16:00:00 21.7 29 Sudoeste 42 Sudoeste 0 -- -- 73
2021-01-05 15:00:00 21.5 31 Sudoeste 47 Sudoeste 0 -- -- 73
2021-01-05 14:00:00 21.6 33 Sudoeste 51 Sudoeste 0 -- -- 72
2021-01-05 13:00:00 21.2 36 Sudoeste 45 Sudoeste 0 -- -- 73
2021-01-05 12:00:00 20.9 32 Sudoeste 39 Sudoeste 0 -- -- 77
2021-01-05 11:00:00 21.1 27 Sudoeste 35 Sudoeste 0 -- -- 77
2021-01-05 10:00:00 21 26 Sudoeste 38 Sudoeste 0 -- -- 75
2021-01-05 09:00:00 21 20 Sudoeste 31 Oeste 0 -- -- 73
2021-01-05 08:00:00 20.3 22 Oeste 36 Oeste 0 -- -- 76
2021-01-05 07:00:00 20.3 23 Oeste 30 Sudoeste 0 -- -- 78
2021-01-05 06:00:00 20.4 21 Sudoeste 32 Sudoeste 0 -- -- 75
2021-01-05 05:00:00 20.6 26 Sudoeste 33 Sudoeste 0 -- -- 73
2021-01-05 04:00:00 20.5 26 Sudoeste 35 Sudoeste 0 -- -- 71
2021-01-05 03:00:00 20.8 21 Sudoeste 33 Sur 0 -- -- 69
2021-01-05 02:00:00 21.4 24 Sudoeste 37 Sudoeste 0 -- -- 65
2021-01-05 01:00:00 21.4 25 Sudoeste 35 Sudoeste 0 -- -- 68
2021-01-05 00:00:00 21.5 30 Sudoeste 45 Sudoeste 0 -- -- 70
2021-01-04 23:00:00 21.5 28 Sudoeste 48 Sudoeste 0 -- -- 69
2021-01-04 22:00:00 21.9 29 Sudoeste 58 Sur 0 -- -- 63
2021-01-04 21:00:00 21.9 43 Sur 64 Sudoeste 0 -- -- 60
2021-01-04 20:00:00 22.7 42 Sur 63 Sur 0 -- -- 52
2021-01-04 19:00:00 21.2 26 Sudoeste 55 Sudoeste 0 -- -- 60
2021-01-04 18:00:00 20 39 Sudoeste 57 Sudoeste 0 -- -- 71
2021-01-04 17:00:00 20.1 37 Sudoeste 48 Sudoeste 0 -- -- 72
2021-01-04 16:00:00 20.6 4 Sur 12 Norte 0 -- -- 61
2021-01-04 15:00:00 20.5 4 Sudeste 9 Oeste 0 -- -- 62
2021-01-04 14:00:00 20.3 6 Norte 20 Noroeste 0 -- -- 61
2021-01-04 13:00:00 20.5 12 Noroeste 17 Noroeste 0 -- -- 61
2021-01-04 12:00:00 20.2 8 Norte 10 Norte 0 -- -- 60
2021-01-04 11:00:00 20.4 4 Nordeste 8 Sudoeste 0 -- -- 54
2021-01-04 10:00:00 20.1 6 Sur 10 Este 0 -- -- 58
2021-01-04 09:00:00 17.8 6 Este 13 Este 0 -- -- 62
2021-01-04 08:00:00 17.2 7 Este 14 Este 0 -- -- 65
2021-01-04 07:00:00 17.3 9 Este 15 Este 0 -- -- 64
2021-01-04 06:00:00 17.2 4 Este 9 Nordeste 0 -- -- 64
2021-01-04 05:00:00 17.2 5 Este 17 Este 0 -- -- 64
2021-01-04 04:00:00 17.6 4 Sudeste 13 Este 0 -- -- 64
2021-01-04 03:00:00 17.3 7 Este 21 Este 0 -- -- 64
2021-01-04 02:00:00 17.1 11 Este 18 Este 0 -- -- 66
2021-01-04 01:00:00 17.3 10 Este 13 Este 0 -- -- 65
2021-01-04 00:00:00 17.2 6 Este 11 Este 0 -- -- 67
2021-01-03 23:00:00 17.5 8 Este 11 Este 0 -- -- 66
2021-01-03 22:00:00 18.2 2 Nordeste 13 Oeste 0 -- -- 63
2021-01-03 21:00:00 18.7 8 Oeste 17 Oeste 0 -- -- 65
2021-01-03 20:00:00 18.7 11 Oeste 18 Oeste 0 -- -- 66
2021-01-03 19:00:00 18.7 13 Sudoeste 19 Sudoeste 0 -- -- 68
2021-01-03 18:00:00 18.8 12 Sudoeste 20 Sudoeste 0 -- -- 66
2021-01-03 17:00:00 19.4 12 Sudoeste 19 Sudoeste 0 -- -- 62
2021-01-03 16:00:00 20.9 7 Sudoeste 14 Nordeste 0 -- -- 54
2021-01-03 15:00:00 19.6 6 Noroeste 21 Nordeste 0 -- -- 55
2021-01-03 14:00:00 19.5 7 Nordeste 15 Este 0 -- -- 57
2021-01-03 13:00:00 19.3 5 Nordeste 14 Este 0 -- -- 57
2021-01-03 12:00:00 19.1 4 Nordeste 9 Este 0 -- -- 55
2021-01-03 11:00:00 19.1 0 Calma 8 Oeste 0 -- -- 55
2021-01-03 10:00:00 18.8 5 Sur 9 Este 0 -- -- 55
2021-01-03 09:00:00 17.6 5 Este 13 Este 0 -- -- 57
2021-01-03 08:00:00 17.3 10 Este 21 Sudeste 0 -- -- 53
2021-01-03 07:00:00 17 6 Este 15 Nordeste 0 -- -- 55
2021-01-03 06:00:00 16.9 8 Este 19 Este 0 -- -- 57
2021-01-03 05:00:00 17.3 12 Este 21 Este 0 -- -- 56
2021-01-03 04:00:00 17.3 11 Este 19 Este 0 -- -- 57
2021-01-03 03:00:00 17.1 10 Este 18 Este 0 -- -- 58
2021-01-03 02:00:00 17.2 8 Este 18 Este 0 -- -- 61
2021-01-03 01:00:00 17.5 9 Este 22 Este 0 -- -- 62
2021-01-03 00:00:00 17.5 6 Este 23 Nordeste 0 -- -- 59
2021-01-02 23:00:00 17.5 13 Nordeste 22 Nordeste 0 -- -- 58
2021-01-02 22:00:00 17.8 14 Nordeste 29 Nordeste 0 -- -- 55
2021-01-02 21:00:00 17.8 13 Nordeste 26 Este 0 -- -- 59
2021-01-02 20:00:00 17.3 12 Nordeste 30 Nordeste 0 -- -- 63
2021-01-02 19:00:00 17.3 12 Nordeste 31 Nordeste 0 -- -- 65
2021-01-02 18:00:00 18 17 Nordeste 33 Norte 0 -- -- 65
2021-01-02 17:00:00 19.2 15 Nordeste 30 Nordeste 0 -- -- 62
2021-01-02 16:00:00 19.5 15 Nordeste 32 Nordeste 0 -- -- 50
2021-01-02 15:00:00 19.7 15 Nordeste 32 Nordeste 0 -- -- 50
2021-01-02 14:00:00 19.2 17 Nordeste 29 Nordeste 0 -- -- 52
2021-01-02 13:00:00 19 16 Nordeste 28 Nordeste 0 -- -- 51